Time;durP1;ratioP1;P1;durP2;ratioP2;P2;SDS_P1;SDS_P2;PMS_P1;PMS_P2;Temp;Humidity;BMP_temperature;BMP_pressure;BME280_temperature;BME280_humidity;BME280_pressure;Samples;Min_cycle;Max_cycle;Signal;HPM_P1;HPM_P2
2021/07/23 00:01:30;;;;;;;15.05;11.48;;;;;;;17.94;67.04;99767.38;530376;1088;116777;-59
2021/07/23 00:11:37;;;;;;;16.03;12.03;;;;;;;17.83;67.20;99765.70;531108;1089;117447;-59
2021/07/23 00:21:43;;;;;;;15.57;10.20;;;;;;;17.71;67.45;99758.86;531655;1088;117842;-60
2021/07/23 00:31:49;;;;;;;15.85;11.48;;;;;;;17.76;67.94;99761.95;530411;1088;117242;-59
2021/07/23 00:41:56;;;;;;;14.17;10.37;;;;;;;17.69;67.87;99761.67;531189;1089;118339;-59
2021/07/23 00:52:04;;;;;;;13.73;10.07;;;;;;;17.64;68.26;99759.44;531220;1090;116696;-59
2021/07/23 01:02:11;;;;;;;14.37;11.57;;;;;;;17.57;68.39;99760.14;531158;1089;116107;-59
2021/07/23 01:12:18;;;;;;;11.97;10.77;;;;;;;17.48;68.28;99759.99;531260;1090;117672;-59
2021/07/23 01:22:28;;;;;;;12.43;8.48;;;;;;;17.34;68.78;99761.23;531093;1089;116898;-59
2021/07/23 01:32:34;;;;;;;12.18;10.05;;;;;;;17.31;68.90;99761.52;531417;1090;117948;-59
2021/07/23 01:42:42;;;;;;;17.73;10.97;;;;;;;17.40;69.23;99751.05;531246;1088;118387;-59
2021/07/23 01:52:49;;;;;;;10.23;8.93;;;;;;;17.42;69.23;99739.30;530497;1089;116487;-59
2021/07/23 02:02:55;;;;;;;10.90;8.60;;;;;;;17.43;69.37;99735.70;531214;1089;173565;-58
2021/07/23 02:13:04;;;;;;;11.00;9.60;;;;;;;17.42;69.25;99730.52;531246;1088;116760;-58
2021/07/23 02:23:11;;;;;;;13.30;9.53;;;;;;;17.31;69.28;99737.63;531365;1090;116762;-59
2021/07/23 02:33:17;;;;;;;10.73;8.77;;;;;;;17.10;69.52;99729.80;531785;1089;116374;-60
2021/07/23 02:43:24;;;;;;;12.43;9.47;;;;;;;17.11;69.67;99731.47;530431;1088;117409;-57
2021/07/23 02:53:31;;;;;;;13.80;8.33;;;;;;;17.20;69.76;99728.00;531249;1090;116184;-57
2021/07/23 03:03:38;;;;;;;15.10;9.67;;;;;;;17.34;69.65;99725.91;531233;1090;116749;-57
2021/07/23 03:13:44;;;;;;;10.60;8.43;;;;;;;17.45;69.42;99727.58;531012;1089;116689;-57
2021/07/23 03:23:52;;;;;;;15.97;10.50;;;;;;;17.39;69.63;99728.15;531567;1089;116752;-57
2021/07/23 03:33:58;;;;;;;13.53;9.40;;;;;;;17.33;69.75;99718.92;531088;1090;117711;-60
2021/07/23 03:44:05;;;;;;;57.27;12.47;;;;;;;17.40;70.09;99720.03;530425;1088;116303;-57
2021/07/23 03:54:12;;;;;;;15.83;9.53;;;;;;;17.61;70.09;99713.73;531194;1089;117213;-57
2021/07/23 04:04:20;;;;;;;12.50;8.55;;;;;;;17.83;69.88;99707.27;530477;1089;172528;-58
2021/07/23 04:14:27;;;;;;;13.50;9.53;;;;;;;18.09;69.19;99712.02;531463;1089;116248;-58
2021/07/23 04:24:33;;;;;;;16.70;11.43;;;;;;;18.52;68.94;99699.11;531719;1089;117872;-58
2021/07/23 04:34:40;;;;;;;24.00;10.13;;;;;;;19.11;68.17;99697.96;530443;1089;116958;-57
2021/07/23 04:44:46;;;;;;;10.97;8.43;;;;;;;19.93;66.00;99699.64;531192;1089;116147;-58
2021/07/23 04:54:52;;;;;;;10.27;8.47;;;;;;;20.97;64.49;99696.93;531177;1090;117057;-58
2021/07/23 05:04:59;;;;;;;17.60;8.73;;;;;;;21.96;62.34;99690.77;530389;1089;116546;-58
2021/07/23 05:15:08;;;;;;;14.65;9.58;;;;;;;22.69;60.17;99684.55;531170;1088;116688;-58
2021/07/23 05:25:14;;;;;;;16.67;10.00;;;;;;;23.05;59.02;99686.67;530748;1089;116770;-57
2021/07/23 05:35:21;;;;;;;10.50;9.40;;;;;;;23.46;56.92;99682.88;531317;1090;118818;-58
2021/07/23 05:45:27;;;;;;;15.37;10.03;;;;;;;23.68;56.58;99674.98;531231;1089;116730;-58
2021/07/23 05:55:33;;;;;;;21.80;9.80;;;;;;;23.73;56.06;99681.45;530622;1089;117797;-58
2021/07/23 06:05:40;;;;;;;9.43;7.55;;;;;;;23.71;55.63;99696.05;531663;1089;116326;-59
2021/07/23 06:15:46;;;;;;;15.73;10.87;;;;;;;23.67;54.87;99694.75;531606;1089;116226;-58
2021/07/23 06:25:53;;;;;;;20.40;9.67;;;;;;;23.91;54.73;99683.78;530516;1089;117314;-55
2021/07/23 06:36:01;;;;;;;12.90;8.70;;;;;;;24.46;53.08;99690.73;531849;1089;116559;-56
2021/07/23 06:46:07;;;;;;;10.17;6.60;;;;;;;24.82;52.42;99689.10;531713;1089;116876;-55
2021/07/23 06:56:14;;;;;;;24.47;8.97;;;;;;;25.21;51.45;99692.39;531634;1090;116930;-57
2021/07/23 07:06:21;;;;;;;13.18;7.60;;;;;;;25.43;50.09;99682.48;531776;1088;117296;-57
2021/07/23 07:16:28;;;;;;;7.65;6.83;;;;;;;27.34;47.68;99676.77;530475;1090;116746;-61
2021/07/23 07:26:34;;;;;;;15.67;8.43;;;;;;;28.55;45.89;99677.59;531219;1088;115852;-61
2021/07/23 07:36:40;;;;;;;10.83;6.85;;;;;;;29.87;43.70;99680.64;531224;1089;117148;-60
2021/07/23 07:46:47;;;;;;;8.15;7.35;;;;;;;30.77;40.67;99675.66;530464;1089;116956;-61
2021/07/23 07:56:55;;;;;;;10.03;6.73;;;;;;;31.47;39.05;99676.09;531200;1090;117791;-61
2021/07/23 08:07:01;;;;;;;9.57;8.13;;;;;;;32.01;37.68;99670.53;531138;1089;117252;-60
2021/07/23 08:17:08;;;;;;;7.85;6.80;;;;;;;31.23;37.06;99677.94;530420;1089;116790;-60
2021/07/23 08:27:18;;;;;;;7.63;6.87;;;;;;;32.47;36.59;99671.73;531130;1089;116148;-61
2021/07/23 08:37:25;;;;;;;9.80;7.47;;;;;;;30.96;35.61;99673.72;530469;1089;116215;-55
2021/07/23 08:47:32;;;;;;;10.73;7.33;;;;;;;31.01;36.80;99673.86;531774;1089;116541;-58
2021/07/23 08:57:39;;;;;;;7.03;6.37;;;;;;;31.22;36.20;99671.67;531794;1088;116198;-57
2021/07/23 09:07:46;;;;;;;7.60;6.90;;;;;;;31.29;35.93;99672.41;531108;1089;117248;-56
2021/07/23 09:17:52;;;;;;;5.15;4.75;;;;;;;30.89;34.25;99671.11;531877;1089;116397;-56
2021/07/23 09:27:59;;;;;;;5.00;4.57;;;;;;;30.41;33.79;99670.05;531811;1089;116772;-59
2021/07/23 09:38:10;;;;;;;9.30;6.43;;;;;;;31.13;33.60;99665.73;531132;1090;116752;-59
2021/07/23 09:48:17;;;;;;;17.20;6.63;;;;;;;31.17;33.81;99664.23;531811;1088;117485;-57
2021/07/23 09:58:24;;;;;;;14.10;8.03;;;;;;;30.61;33.99;99656.27;531152;1090;116911;-59
2021/07/23 10:08:34;;;;;;;7.33;5.80;;;;;;;30.50;33.56;99650.78;531122;1090;116810;-58
2021/07/23 10:18:43;;;;;;;10.27;6.50;;;;;;;30.93;33.12;99640.82;531034;1089;115821;-57
2021/07/23 10:28:58;;;;;;;6.20;5.60;;;;;;;30.25;33.33;99649.02;530331;1090;178442;-59
2021/07/23 10:39:13;;;;;;;6.93;5.77;;;;;;;29.48;34.33;99634.81;531864;1089;116795;-59
2021/07/23 10:49:48;;;;;;;7.23;6.17;;;;;;;29.96;34.30;99625.17;531081;1089;116373;-53
2021/07/23 11:00:00;;;;;;;11.33;6.47;;;;;;;29.62;33.99;99616.59;531889;1088;116426;-55
2021/07/23 11:10:10;;;;;;;8.13;5.00;;;;;;;29.91;33.35;99603.38;531060;1088;116512;-57
2021/07/23 11:20:23;;;;;;;8.00;5.93;;;;;;;28.96;34.06;99598.01;531546;1090;115991;-62
2021/07/23 11:30:33;;;;;;;5.90;5.40;;;;;;;29.84;33.68;99595.34;522734;1088;10002132;-57
2021/07/23 11:40:40;;;;;;;7.58;4.90;;;;;;;29.97;34.15;99574.59;530943;1089;116465;-58
2021/07/23 11:50:54;;;;;;;8.73;5.40;;;;;;;29.87;33.28;99562.41;531583;1090;116447;-57
2021/07/23 12:01:01;;;;;;;5.70;5.20;;;;;;;29.92;33.25;99557.13;531622;1089;116488;-58
2021/07/23 12:11:07;;;;;;;14.58;5.73;;;;;;;29.99;33.22;99554.34;530971;1089;117164;-58
2021/07/23 12:21:14;;;;;;;5.28;4.78;;;;;;;29.45;33.59;99551.43;531803;1090;116227;-58
2021/07/23 12:31:22;;;;;;;5.70;4.83;;;;;;;29.72;33.48;99556.53;530970;1088;117528;-69
2021/07/23 12:41:29;;;;;;;10.70;5.87;;;;;;;29.92;33.65;99549.02;531684;1090;117192;-57
2021/07/23 12:51:34;;;;;;;;;;;;;;;30.19;32.92;99542.45;531717;1089;116661;-57
2021/07/23 13:01:42;;;;;;;10.88;5.90;;;;;;;30.38;32.82;99532.39;527261;1089;102672;-57
2021/07/23 13:11:50;;;;;;;7.50;5.20;;;;;;;30.24;32.32;99531.75;521706;1089;116496;-62
2021/07/23 13:21:57;;;;;;;6.17;4.90;;;;;;;30.07;32.26;99539.72;531110;1089;116627;-61
2021/07/23 13:32:04;;;;;;;5.65;5.15;;;;;;;29.43;32.16;99534.58;529756;1090;116303;-64
2021/07/23 13:42:14;;;;;;;10.03;5.47;;;;;;;28.70;33.44;99524.20;531735;1090;116860;-64
2021/07/23 13:52:21;;;;;;;5.30;4.73;;;;;;;28.15;34.12;99524.72;531113;1090;116426;-59
2021/07/23 14:02:28;;;;;;;6.93;5.57;;;;;;;27.34;34.88;99520.44;531894;1089;116816;-59
2021/07/23 14:12:36;;;;;;;9.75;5.13;;;;;;;27.33;35.40;99523.33;531762;1089;116583;-59
2021/07/23 14:22:41;;;;;;;;;;;;;;;27.02;35.94;99520.27;531178;1090;117230;-60
2021/07/23 14:32:48;;;;;;;6.37;4.87;;;;;;;27.03;35.65;99521.92;532155;1089;102754;-60
2021/07/23 14:42:54;;;;;;;7.00;5.80;;;;;;;26.28;37.95;99518.33;531775;1089;117937;-56
2021/07/23 14:53:01;;;;;;;7.77;6.20;;;;;;;25.84;39.01;99523.10;530975;1088;118460;-56
2021/07/23 15:03:07;;;;;;;10.97;7.30;;;;;;;25.19;40.68;99520.67;502111;1089;20001922;-58
2021/07/23 15:13:15;;;;;;;10.27;6.57;;;;;;;24.88;41.62;99514.66;530940;1089;117275;-59
2021/07/23 15:23:21;;;;;;;8.03;6.60;;;;;;;24.68;42.35;99519.80;531777;1088;117137;-58
2021/07/23 15:33:29;;;;;;;7.03;6.33;;;;;;;24.68;42.17;99506.38;531746;1089;117830;-61
2021/07/23 15:43:37;;;;;;;6.90;6.20;;;;;;;24.67;42.05;99495.86;530972;1089;116861;-61
2021/07/23 15:53:43;;;;;;;7.68;6.40;;;;;;;24.61;42.60;99502.83;531807;1089;117095;-61
2021/07/23 16:03:49;;;;;;;9.53;6.50;;;;;;;24.59;42.89;99486.91;531750;1089;116644;-61
2021/07/23 16:13:58;;;;;;;7.70;6.90;;;;;;;24.48;42.74;99500.84;531118;1090;116760;-61
2021/07/23 16:24:20;;;;;;;8.40;6.90;;;;;;;24.34;43.24;99489.98;531814;1090;118338;-61
2021/07/23 16:34:27;;;;;;;7.80;7.00;;;;;;;24.16;43.17;99493.10;530949;1089;116918;-58
2021/07/23 16:44:33;;;;;;;9.13;6.47;;;;;;;24.09;43.63;99480.65;531781;1089;117199;-61
2021/07/23 16:54:39;;;;;;;8.50;6.33;;;;;;;23.89;43.47;99482.06;531769;1089;116658;-57
2021/07/23 17:04:46;;;;;;;8.73;6.73;;;;;;;23.73;43.59;99475.06;530405;1089;117021;-57
2021/07/23 17:14:52;;;;;;;9.73;6.43;;;;;;;23.43;43.59;99477.76;531742;1088;117270;-57
2021/07/23 17:24:59;;;;;;;7.13;5.87;;;;;;;23.22;43.91;99483.84;531781;1090;115993;-57
2021/07/23 17:35:07;;;;;;;10.67;6.40;;;;;;;23.05;45.28;99475.95;531090;1089;116455;-57
2021/07/23 17:45:22;;;;;;;25.78;8.98;;;;;;;22.77;46.56;99473.89;531790;1089;117013;-57
2021/07/23 17:55:29;;;;;;;30.73;8.90;;;;;;;22.38;48.13;99475.67;531055;1090;117445;-56
2021/07/23 18:05:38;;;;;;;18.40;7.73;;;;;;;22.19;49.56;99476.98;531909;1089;116274;-57
2021/07/23 18:15:44;;;;;;;10.90;7.07;;;;;;;21.97;50.32;99476.77;531853;1089;115721;-56
2021/07/23 18:25:51;;;;;;;14.87;7.97;;;;;;;21.74;51.36;99471.36;531188;1089;116769;-56
2021/07/23 18:35:57;;;;;;;12.53;7.43;;;;;;;21.42;52.31;99479.31;531833;1090;117207;-56
2021/07/23 18:46:03;;;;;;;14.07;7.80;;;;;;;21.16;52.98;99479.55;531767;1089;116595;-56
2021/07/23 18:56:16;;;;;;;14.87;9.30;;;;;;;20.93;53.75;99474.09;531831;1088;117045;-56
2021/07/23 19:06:24;;;;;;;14.23;9.37;;;;;;;20.68;54.34;99484.76;513736;1089;10001777;-57
2021/07/23 19:16:33;;;;;;;35.80;10.35;;;;;;;20.38;55.82;99484.39;519409;1089;117427;-57
2021/07/23 19:26:40;;;;;;;24.40;10.50;;;;;;;20.17;56.76;99491.02;531837;1090;116696;-59
2021/07/23 19:36:47;;;;;;;20.10;12.33;;;;;;;20.08;57.97;99492.84;531428;1090;117805;-58
2021/07/23 19:46:53;;;;;;;15.27;11.93;;;;;;;20.08;57.58;99484.84;530379;1088;117520;-57
2021/07/23 19:57:02;;;;;;;14.53;10.53;;;;;;;20.00;58.53;99485.66;531232;1089;117469;-54
2021/07/23 20:07:09;;;;;;;15.13;10.00;;;;;;;19.92;59.69;99498.92;531060;1088;115927;-52
2021/07/23 20:17:15;;;;;;;10.53;9.43;;;;;;;19.85;59.71;99497.89;531221;1089;117782;-59
2021/07/23 20:27:22;;;;;;;14.30;10.77;;;;;;;19.82;60.47;99498.22;531182;1088;116498;-58
2021/07/23 20:37:31;;;;;;;20.60;11.17;;;;;;;19.79;60.63;99507.36;530382;1089;117509;-58
2021/07/23 20:47:37;;;;;;;17.43;11.37;;;;;;;19.64;60.95;99504.49;531228;1088;116828;-58
2021/07/23 20:57:45;;;;;;;15.20;11.30;;;;;;;19.60;61.42;99503.97;531520;1089;117849;-59
2021/07/23 21:07:52;;;;;;;17.67;11.37;;;;;;;19.58;61.88;99508.63;512787;1088;10001744;-57
2021/07/23 21:17:59;;;;;;;18.43;11.15;;;;;;;19.54;62.25;99517.09;530919;1090;116861;-57
2021/07/23 21:28:06;;;;;;;14.57;10.73;;;;;;;19.67;62.47;99522.81;531157;1089;117147;-58
2021/07/23 21:38:13;;;;;;;15.13;11.10;;;;;;;19.65;62.47;99521.29;530948;1090;116906;-60
2021/07/23 21:48:19;;;;;;;17.50;11.63;;;;;;;19.49;62.79;99527.36;531049;1088;117384;-59
2021/07/23 21:58:44;;;;;;;16.00;11.15;;;;;;;19.32;63.15;99521.95;530268;1088;118084;-60
2021/07/23 22:08:51;;;;;;;24.80;12.55;;;;;;;19.31;63.58;99520.29;521206;1089;116452;-61
2021/07/23 22:18:57;;;;;;;15.03;12.17;;;;;;;19.40;63.61;99526.48;531362;1089;116933;-61
2021/07/23 22:29:04;;;;;;;15.47;11.60;;;;;;;19.31;63.94;99518.45;530496;1089;116992;-54
2021/07/23 22:39:11;;;;;;;14.63;12.37;;;;;;;19.26;64.35;99522.57;531048;1090;117386;-52
2021/07/23 22:49:18;;;;;;;17.87;12.57;;;;;;;19.15;63.89;99516.52;530281;1089;116950;-54
2021/07/23 22:59:24;;;;;;;13.90;11.30;;;;;;;19.21;64.70;99519.55;531135;1090;116170;-53
2021/07/23 23:09:30;;;;;;;17.87;11.67;;;;;;;19.20;65.11;99517.89;531204;1089;116185;-62
2021/07/23 23:19:38;;;;;;;13.60;11.30;;;;;;;19.17;65.29;99519.88;530304;1090;117069;-61
2021/07/23 23:29:44;;;;;;;16.33;11.10;;;;;;;19.17;65.45;99519.03;518722;1089;116255;-58
2021/07/23 23:39:52;;;;;;;14.43;12.23;;;;;;;19.04;65.62;99517.61;513250;1089;116304;-55
2021/07/23 23:49:59;;;;;;;18.80;12.87;;;;;;;18.93;65.91;99509.00;530323;1089;117202;-57
